Airfield :







YOU CAN JOIN US ON...

 
LOGIN :

Register | Disclaimer

   EN    FR    IT 

 









Legend :    VFR   Marginal VFR   IFR   Intensive IFR   Very Intensive IFR
Visi :
Ceiling :
>= 8 km
>= 3000ft
5 to 8 km
1000 to 3000 ft
1500m to 5 km
500 to 1000 ft
800 to 1500m
200 to 500 ft
< 800m
< 200 ft
Symbols :   Thunderstorms  Fog  Heavy snow  Heavy precipitations  Wind > 20 kt






- Airport Elevation : 271 ft


KBAF - Barnes Municipal

CURRENT METAR :
  • 240453Z AUTO 33011G20KT 10SM CLR M09/M17 A3006 RMK AO2 SLP188 T10941167 400001094

EXPIRED METARs :
  • 240353Z AUTO 33013G27KT 10SM CLR M09/M17 A3007 RMK AO2 PK WND 32027/0344 SLP191 T10891167
  • 240253Z 34012KT 10SM CLR M08/M17 A3006 RMK AO2 PK WND 34030/0239 SLP190 T10831167 53007

TAF KBAF
Valid from the 24 at 06:00 until the 25 at 06:00 UTC


240530Z 2406/2506 32013G28KT P6SM SKC
FM242100 31015G25KT P6SM SCT150
FM250000 31010G22KT P6SM SCT120
FM250200 31008KT P6SM SCT100
KZBW FIR / North America



MET'MAP, your aeronautical weather chart ! - Copyright ORBIFLY December 2007 - Disclaimer

ORBIFLY MET'MAP TEAM :

Programming & Development : Alexandra Zaïnal
Concept & original design : Baudouin d'Aumeries
Assistance for programming : Marc-Olivier Méhu
Technical & hardware support : Manuel Goepfert

Contact : metmap@orbifly.com




SOURCES & CREDITS :

   NOAA